createdAt,value
2018-01-13T00:04:41.666Z,91.76
2018-01-13T00:10:45.190Z,92.04
2018-01-13T00:16:48.707Z,92.13
2018-01-13T00:22:52.307Z,91.93
2018-01-13T00:28:56.683Z,91.89
2018-01-13T00:35:00.972Z,92.09
2018-01-13T00:41:05.271Z,92.32
2018-01-13T00:47:08.758Z,92.09
2018-01-13T00:53:12.287Z,92.25
2018-01-13T00:59:15.754Z,91.86
2018-01-13T01:05:19.229Z,91.95
2018-01-13T01:11:22.692Z,92.19
2018-01-13T01:17:27.039Z,92.46
2018-01-13T01:23:30.905Z,92.52
2018-01-13T01:29:34.387Z,92.57
2018-01-13T01:35:37.868Z,92.42
2018-01-13T01:41:41.338Z,92.41
2018-01-13T01:47:44.803Z,92.54
2018-01-13T01:53:48.300Z,92.49
2018-01-13T01:59:52.536Z,92.56
2018-01-13T02:05:56.870Z,92.26
2018-01-13T02:12:00.372Z,92.25
2018-01-13T02:18:04.071Z,92.10
2018-01-13T02:24:08.320Z,91.98
2018-01-13T02:30:12.192Z,91.97
2018-01-13T02:36:15.755Z,91.98
2018-01-13T02:42:20.007Z,91.90
2018-01-13T02:48:23.773Z,91.52
2018-01-13T02:54:27.713Z,91.56
2018-01-13T03:00:31.205Z,91.60
2018-01-13T03:06:34.690Z,91.62
2018-01-13T03:12:38.161Z,91.86
2018-01-13T03:18:41.638Z,91.83
2018-01-13T03:24:45.145Z,91.56
2018-01-13T03:30:48.671Z,91.52
2018-01-13T03:36:52.936Z,91.58
2018-01-13T03:42:56.936Z,91.65
2018-01-13T03:49:00.561Z,91.53
2018-01-13T03:55:05.233Z,91.75
2018-01-13T04:01:08.719Z,91.74
2018-01-13T04:07:12.194Z,91.79
2018-01-13T04:13:15.673Z,92.25
2018-01-13T04:19:19.141Z,92.44
2018-01-13T04:25:22.622Z,92.25
2018-01-13T04:31:26.958Z,92.20
2018-01-13T04:37:30.454Z,92.20
2018-01-13T04:43:34.925Z,92.43
2018-01-13T04:49:38.401Z,92.48
2018-01-13T04:55:41.990Z,92.47
2018-01-13T05:01:45.534Z,92.21
2018-01-13T05:07:49.032Z,92.01
2018-01-13T05:13:53.302Z,92.30
2018-01-13T05:19:56.802Z,92.59
2018-01-13T05:26:00.376Z,92.44
2018-01-13T05:32:03.913Z,92.02
2018-01-13T05:38:07.421Z,91.76
2018-01-13T05:44:11.749Z,91.70
2018-01-13T05:50:15.229Z,91.69
2018-01-13T05:56:18.715Z,91.58
2018-01-13T06:02:22.948Z,91.40
2018-01-13T06:08:27.025Z,91.39
2018-01-13T06:14:30.508Z,91.33
2018-01-13T06:20:33.969Z,91.43
2018-01-13T06:26:37.494Z,91.51
2018-01-13T06:32:41.039Z,91.54
2018-01-13T06:38:45.375Z,91.71
2018-01-13T06:44:48.989Z,91.75
2018-01-13T06:50:53.658Z,91.86
2018-01-13T06:56:57.146Z,92.36
2018-01-13T07:03:01.401Z,92.48
2018-01-13T07:09:05.687Z,92.40
2018-01-13T07:15:09.936Z,92.07
2018-01-13T07:21:13.428Z,92.05
2018-01-13T07:27:16.980Z,92.09
2018-01-13T07:33:22.117Z,92.11
2018-01-13T07:39:26.319Z,91.70
2018-01-13T07:45:30.584Z,91.49
2018-01-13T07:51:34.200Z,91.33
2018-01-13T07:57:37.676Z,91.16
2018-01-13T08:03:41.182Z,90.80
2018-01-13T08:09:44.670Z,90.62
2018-01-13T08:15:48.207Z,90.41
2018-01-13T08:21:51.670Z,90.25
2018-01-13T08:27:55.589Z,89.84
2018-01-13T08:33:59.136Z,89.76
2018-01-13T08:40:03.376Z,89.68
2018-01-13T08:46:06.845Z,89.15
2018-01-13T08:52:10.390Z,89.12
2018-01-13T08:58:15.397Z,88.92
2018-01-13T09:04:18.922Z,88.21
2018-01-13T09:10:22.496Z,88.40
2018-01-13T09:16:26.138Z,88.24
2018-01-13T09:22:29.762Z,88.27
2018-01-13T09:28:33.243Z,87.66
2018-01-13T09:34:36.723Z,87.75
2018-01-13T09:40:40.270Z,87.82
2018-01-13T09:46:43.753Z,88.11
2018-01-13T09:52:48.015Z,88.20
2018-01-13T09:58:52.422Z,87.96
2018-01-13T10:04:56.395Z,86.99
2018-01-13T10:11:00.001Z,87.06
2018-01-13T10:17:03.509Z,86.37
2018-01-13T10:23:07.024Z,86.86
2018-01-13T10:29:11.315Z,86.57
2018-01-13T10:35:15.569Z,85.98
2018-01-13T10:41:19.187Z,85.92
2018-01-13T10:47:22.922Z,85.79
2018-01-13T10:53:26.415Z,84.90
2018-01-13T10:59:31.562Z,85.28
2018-01-13T11:05:35.051Z,85.79
2018-01-13T11:11:38.722Z,86.54
2018-01-13T11:17:42.242Z,86.74
2018-01-13T11:23:45.975Z,86.09
2018-01-13T11:29:49.460Z,85.74
2018-01-13T11:35:53.059Z,85.21
2018-01-13T11:41:57.192Z,85.28
2018-01-13T11:48:00.673Z,84.77
2018-01-13T11:54:04.137Z,84.90
2018-01-13T12:00:08.376Z,84.97
2018-01-13T12:06:11.860Z,85.00
2018-01-13T12:12:16.090Z,84.60
2018-01-13T12:18:19.559Z,84.15
2018-01-13T12:24:23.026Z,83.88
2018-01-13T12:30:26.902Z,84.23
2018-01-13T12:36:30.589Z,84.22
2018-01-13T12:42:34.114Z,84.43
2018-01-13T12:48:37.766Z,84.63
2018-01-13T12:54:41.239Z,84.39
2018-01-13T13:00:45.758Z,84.38
2018-01-13T13:06:49.213Z,85.43
2018-01-13T13:12:52.826Z,84.91
2018-01-13T13:18:56.337Z,84.98
2018-01-13T13:24:59.934Z,84.98
2018-01-13T13:31:04.243Z,85.45
2018-01-13T13:37:07.710Z,85.59
2018-01-13T13:43:11.344Z,85.90
2018-01-13T13:49:14.926Z,85.98
2018-01-13T13:55:18.455Z,85.62
2018-01-13T14:01:28.593Z,86.14
2018-01-13T14:07:25.845Z,86.23
2018-01-13T14:13:30.065Z,86.22
2018-01-13T14:19:33.540Z,86.41
2018-01-13T14:25:37.877Z,87.68
2018-01-13T14:31:41.341Z,87.21
2018-01-13T14:37:44.814Z,87.24
2018-01-13T14:43:48.279Z,86.80
2018-01-13T14:49:51.751Z,87.31
2018-01-13T14:55:55.998Z,87.21
2018-01-13T15:01:59.591Z,87.47
2018-01-13T15:08:03.056Z,87.23
2018-01-13T15:14:06.561Z,86.79
2018-01-13T15:20:10.031Z,87.06
2018-01-13T15:26:13.510Z,86.63
2018-01-13T15:32:16.978Z,86.90
2018-01-13T15:38:20.475Z,86.99
2018-01-13T15:44:24.255Z,87.05
2018-01-13T15:50:28.701Z,86.99
2018-01-13T15:56:32.259Z,86.32
2018-01-13T16:02:35.738Z,85.66
2018-01-13T16:08:39.352Z,86.02
2018-01-13T16:14:42.868Z,85.84
2018-01-13T16:20:47.104Z,85.42
2018-01-13T16:26:50.608Z,85.43
2018-01-13T16:32:54.215Z,84.67
2018-01-13T16:38:57.720Z,84.84
2018-01-13T16:45:01.201Z,84.46
2018-01-13T16:51:04.700Z,84.04
2018-01-13T16:57:08.214Z,84.43
2018-01-13T17:03:11.706Z,84.58
2018-01-13T17:09:15.197Z,84.32
2018-01-13T17:15:18.728Z,84.87
2018-01-13T17:21:22.417Z,84.73
2018-01-13T17:27:26.145Z,84.60
2018-01-13T17:33:30.435Z,83.76
2018-01-13T17:39:33.884Z,83.62
2018-01-13T17:45:37.381Z,84.26
2018-01-13T17:51:40.934Z,84.32
2018-01-13T17:57:44.482Z,85.10
2018-01-13T18:03:48.131Z,84.72
2018-01-13T18:09:51.664Z,84.11
2018-01-13T18:15:55.340Z,82.76
2018-01-13T18:21:58.972Z,83.17
2018-01-13T18:28:02.657Z,83.74
2018-01-13T18:34:06.114Z,83.70
2018-01-13T18:40:09.579Z,83.42
2018-01-13T18:46:13.002Z,82.76
2018-01-13T18:52:16.481Z,82.88
2018-01-13T18:58:20.025Z,83.56
2018-01-13T19:04:23.997Z,83.66
2018-01-13T19:10:27.505Z,83.46
2018-01-13T19:16:31.943Z,83.87
2018-01-13T19:22:35.435Z,83.86
2018-01-13T19:28:39.671Z,83.88
2018-01-13T19:34:43.149Z,84.28
2018-01-13T19:40:46.772Z,84.04
2018-01-13T19:46:50.398Z,83.33
2018-01-13T19:52:54.096Z,83.54
2018-01-13T19:58:57.628Z,83.01
2018-01-13T20:05:01.120Z,81.75
2018-01-13T20:11:04.891Z,82.45
2018-01-13T20:17:08.555Z,81.48
2018-01-13T20:23:12.778Z,81.93
2018-01-13T20:29:16.304Z,82.27
2018-01-13T20:35:19.753Z,83.16
2018-01-13T20:41:23.232Z,82.82
2018-01-13T20:47:26.907Z,83.15
2018-01-13T20:53:30.410Z,83.10
2018-01-13T20:59:34.716Z,83.27
2018-01-13T21:05:38.171Z,83.01
2018-01-13T21:11:41.687Z,82.86
2018-01-13T21:17:46.054Z,83.04
2018-01-13T21:23:50.321Z,82.44
2018-01-13T21:29:54.134Z,82.96
2018-01-13T21:35:58.078Z,82.88
2018-01-13T21:42:01.729Z,83.37
2018-01-13T21:48:05.295Z,83.06
2018-01-13T21:54:08.788Z,82.96
2018-01-13T22:00:12.256Z,82.73
2018-01-13T22:06:15.887Z,82.80
2018-01-13T22:12:19.481Z,82.36
2018-01-13T22:18:24.070Z,82.44
2018-01-13T22:24:27.602Z,82.10
2018-01-13T22:30:31.100Z,79.41
2018-01-13T22:36:34.647Z,80.27
2018-01-13T22:42:38.146Z,80.90
2018-01-13T22:48:41.616Z,80.99
2018-01-13T22:54:45.155Z,80.44
2018-01-13T23:00:54.318Z,80.12
2018-01-13T23:06:57.803Z,78.86
2018-01-13T23:13:01.392Z,78.56
2018-01-13T23:19:04.871Z,77.97
2018-01-13T23:25:08.370Z,77.01
2018-01-13T23:31:11.877Z,74.77
2018-01-13T23:37:15.447Z,74.45
2018-01-13T23:43:18.937Z,74.15
2018-01-13T23:49:22.403Z,73.67
2018-01-13T23:55:27.098Z,73.74
